sensor_id;sensor_type;location;lat;lon;timestamp;temperature;humidity
21184;DHT22;18176;49.502;11.754;2023-01-24T00:03:37;1.20;99.90
21184;DHT22;18176;49.502;11.754;2023-01-24T00:07:40;1.20;99.90
21184;DHT22;18176;49.502;11.754;2023-01-24T00:11:40;1.30;99.90
21184;DHT22;18176;49.502;11.754;2023-01-24T00:15:40;1.20;99.90
21184;DHT22;18176;49.502;11.754;2023-01-24T00:19:41;1.30;99.90
21184;DHT22;18176;49.502;11.754;2023-01-24T00:23:45;1.30;99.90
21184;DHT22;18176;49.502;11.754;2023-01-24T00:27:46;1.20;99.90
21184;DHT22;18176;49.502;11.754;2023-01-24T00:31:46;1.20;99.90
21184;DHT22;18176;49.502;11.754;2023-01-24T00:35:49;1.20;99.90
21184;DHT22;18176;49.502;11.754;2023-01-24T00:39:52;1.20;99.90
21184;DHT22;18176;49.502;11.754;2023-01-24T00:43:52;1.20;99.90
21184;DHT22;18176;49.502;11.754;2023-01-24T00:47:53;1.30;99.90
21184;DHT22;18176;49.502;11.754;2023-01-24T00:51:54;1.20;99.90
21184;DHT22;18176;49.502;11.754;2023-01-24T00:55:56;1.30;99.90
21184;DHT22;18176;49.502;11.754;2023-01-24T00:59:57;1.20;99.90
21184;DHT22;18176;49.502;11.754;2023-01-24T01:03:57;1.20;99.90
21184;DHT22;18176;49.502;11.754;2023-01-24T01:07:57;1.30;99.90
21184;DHT22;18176;49.502;11.754;2023-01-24T01:12:00;1.30;99.90
21184;DHT22;18176;49.502;11.754;2023-01-24T01:16:01;1.30;99.90
21184;DHT22;18176;49.502;11.754;2023-01-24T01:20:03;1.30;99.90
21184;DHT22;18176;49.502;11.754;2023-01-24T01:24:04;1.20;99.90
21184;DHT22;18176;49.502;11.754;2023-01-24T01:28:07;1.20;99.90
21184;DHT22;18176;49.502;11.754;2023-01-24T01:32:07;1.30;99.90
21184;DHT22;18176;49.502;11.754;2023-01-24T01:36:07;1.20;99.90
21184;DHT22;18176;49.502;11.754;2023-01-24T01:40:09;1.20;99.90
21184;DHT22;18176;49.502;11.754;2023-01-24T01:44:23;1.20;99.90
21184;DHT22;18176;49.502;11.754;2023-01-24T01:48:41;1.20;99.90
21184;DHT22;18176;49.502;11.754;2023-01-24T01:52:43;1.20;99.90
21184;DHT22;18176;49.502;11.754;2023-01-24T01:56:46;1.30;99.90
21184;DHT22;18176;49.502;11.754;2023-01-24T02:00:53;1.30;99.90
21184;DHT22;18176;49.502;11.754;2023-01-24T02:04:57;1.20;99.90
21184;DHT22;18176;49.502;11.754;2023-01-24T02:09:02;1.20;99.90
21184;DHT22;18176;49.502;11.754;2023-01-24T02:13:07;1.20;99.90
21184;DHT22;18176;49.502;11.754;2023-01-24T02:17:09;1.20;99.90
21184;DHT22;18176;49.502;11.754;2023-01-24T02:21:12;1.20;99.90
21184;DHT22;18176;49.502;11.754;2023-01-24T02:25:19;1.10;99.90
21184;DHT22;18176;49.502;11.754;2023-01-24T02:29:28;1.10;99.90
21184;DHT22;18176;49.502;11.754;2023-01-24T02:33:29;1.20;99.90
21184;DHT22;18176;49.502;11.754;2023-01-24T02:37:32;1.20;99.90
21184;DHT22;18176;49.502;11.754;2023-01-24T02:41:43;1.20;99.90
21184;DHT22;18176;49.502;11.754;2023-01-24T02:45:47;1.20;99.90
21184;DHT22;18176;49.502;11.754;2023-01-24T02:49:48;1.20;99.90
21184;DHT22;18176;49.502;11.754;2023-01-24T02:53:48;1.10;99.90
21184;DHT22;18176;49.502;11.754;2023-01-24T02:57:48;1.20;99.90
21184;DHT22;18176;49.502;11.754;2023-01-24T03:02:10;1.20;99.90
21184;DHT22;18176;49.502;11.754;2023-01-24T03:06:12;1.20;99.90
21184;DHT22;18176;49.502;11.754;2023-01-24T03:10:16;1.20;99.90
21184;DHT22;18176;49.502;11.754;2023-01-24T03:14:21;1.20;99.90
21184;DHT22;18176;49.502;11.754;2023-01-24T03:18:37;1.10;99.90
21184;DHT22;18176;49.502;11.754;2023-01-24T03:22:50;1.10;99.90
21184;DHT22;18176;49.502;11.754;2023-01-24T03:27:03;1.20;99.90
21184;DHT22;18176;49.502;11.754;2023-01-24T03:31:16;1.20;99.90
21184;DHT22;18176;49.502;11.754;2023-01-24T03:35:32;1.10;99.90
21184;DHT22;18176;49.502;11.754;2023-01-24T03:39:32;1.10;99.90
21184;DHT22;18176;49.502;11.754;2023-01-24T03:43:45;1.20;99.90
21184;DHT22;18176;49.502;11.754;2023-01-24T03:47:46;1.20;99.90
21184;DHT22;18176;49.502;11.754;2023-01-24T03:52:06;1.20;99.90
21184;DHT22;18176;49.502;11.754;2023-01-24T03:56:19;1.20;99.90
21184;DHT22;18176;49.502;11.754;2023-01-24T04:00:25;1.20;99.90
21184;DHT22;18176;49.502;11.754;2023-01-24T04:04:29;1.20;99.90
21184;DHT22;18176;49.502;11.754;2023-01-24T04:08:53;1.10;99.90
21184;DHT22;18176;49.502;11.754;2023-01-24T04:12:55;1.20;99.90
21184;DHT22;18176;49.502;11.754;2023-01-24T04:16:56;1.10;99.90
21184;DHT22;18176;49.502;11.754;2023-01-24T04:21:02;1.20;99.90
21184;DHT22;18176;49.502;11.754;2023-01-24T04:25:08;1.20;99.90
21184;DHT22;18176;49.502;11.754;2023-01-24T04:29:11;1.20;99.90
21184;DHT22;18176;49.502;11.754;2023-01-24T04:33:14;1.20;99.90
21184;DHT22;18176;49.502;11.754;2023-01-24T04:37:14;1.20;99.90
21184;DHT22;18176;49.502;11.754;2023-01-24T04:41:17;1.10;99.90
21184;DHT22;18176;49.502;11.754;2023-01-24T04:45:18;1.20;99.90
21184;DHT22;18176;49.502;11.754;2023-01-24T04:49:19;1.20;99.90
21184;DHT22;18176;49.502;11.754;2023-01-24T04:53:19;1.20;99.90
21184;DHT22;18176;49.502;11.754;2023-01-24T04:57:24;1.20;99.90
21184;DHT22;18176;49.502;11.754;2023-01-24T05:01:24;1.20;99.90
21184;DHT22;18176;49.502;11.754;2023-01-24T05:05:34;1.20;99.90
21184;DHT22;18176;49.502;11.754;2023-01-24T05:09:34;1.10;99.90
21184;DHT22;18176;49.502;11.754;2023-01-24T05:13:40;1.10;99.90
21184;DHT22;18176;49.502;11.754;2023-01-24T05:17:43;1.10;99.90
21184;DHT22;18176;49.502;11.754;2023-01-24T05:21:47;1.10;99.90
21184;DHT22;18176;49.502;11.754;2023-01-24T05:25:47;1.10;99.90
21184;DHT22;18176;49.502;11.754;2023-01-24T05:29:50;1.10;99.90
21184;DHT22;18176;49.502;11.754;2023-01-24T05:33:50;1.10;99.90
21184;DHT22;18176;49.502;11.754;2023-01-24T05:37:50;1.20;99.90
21184;DHT22;18176;49.502;11.754;2023-01-24T05:41:52;1.20;99.90
21184;DHT22;18176;49.502;11.754;2023-01-24T05:46:03;1.20;99.90
21184;DHT22;18176;49.502;11.754;2023-01-24T05:50:10;1.20;99.90
21184;DHT22;18176;49.502;11.754;2023-01-24T05:54:11;1.30;99.90
21184;DHT22;18176;49.502;11.754;2023-01-24T05:58:34;1.30;99.90
21184;DHT22;18176;49.502;11.754;2023-01-24T06:02:41;1.30;99.90
21184;DHT22;18176;49.502;11.754;2023-01-24T06:06:41;1.40;99.90
21184;DHT22;18176;49.502;11.754;2023-01-24T06:10:42;1.30;99.90
21184;DHT22;18176;49.502;11.754;2023-01-24T06:14:43;1.30;99.90
21184;DHT22;18176;49.502;11.754;2023-01-24T06:18:46;1.30;99.90
21184;DHT22;18176;49.502;11.754;2023-01-24T06:22:52;1.30;99.90
21184;DHT22;18176;49.502;11.754;2023-01-24T06:26:54;1.30;99.90
21184;DHT22;18176;49.502;11.754;2023-01-24T06:31:02;1.40;99.90
21184;DHT22;18176;49.502;11.754;2023-01-24T06:35:18;1.50;99.90
21184;DHT22;18176;49.502;11.754;2023-01-24T06:39:28;1.50;99.90
21184;DHT22;18176;49.502;11.754;2023-01-24T06:43:29;1.60;99.90
21184;DHT22;18176;49.502;11.754;2023-01-24T06:47:30;1.60;99.90
21184;DHT22;18176;49.502;11.754;2023-01-24T06:51:33;1.70;99.90
21184;DHT22;18176;49.502;11.754;2023-01-24T06:55:33;1.60;99.90
21184;DHT22;18176;49.502;11.754;2023-01-24T06:59:34;1.60;99.90
21184;DHT22;18176;49.502;11.754;2023-01-24T07:03:34;1.60;99.90
21184;DHT22;18176;49.502;11.754;2023-01-24T07:07:36;1.60;99.90
21184;DHT22;18176;49.502;11.754;2023-01-24T07:11:38;1.70;99.90
21184;DHT22;18176;49.502;11.754;2023-01-24T07:15:38;1.70;99.90
21184;DHT22;18176;49.502;11.754;2023-01-24T07:19:38;1.60;99.90
21184;DHT22;18176;49.502;11.754;2023-01-24T07:23:43;1.60;99.90
21184;DHT22;18176;49.502;11.754;2023-01-24T07:27:45;1.60;99.90
21184;DHT22;18176;49.502;11.754;2023-01-24T07:31:46;1.60;99.90
21184;DHT22;18176;49.502;11.754;2023-01-24T07:35:47;1.60;99.90
21184;DHT22;18176;49.502;11.754;2023-01-24T07:39:50;1.60;99.90
21184;DHT22;18176;49.502;11.754;2023-01-24T07:43:50;1.60;99.90
21184;DHT22;18176;49.502;11.754;2023-01-24T07:47:53;1.60;99.90
21184;DHT22;18176;49.502;11.754;2023-01-24T07:51:54;1.70;99.90
21184;DHT22;18176;49.502;11.754;2023-01-24T07:55:58;1.80;99.90
21184;DHT22;18176;49.502;11.754;2023-01-24T07:59:59;1.70;99.90
21184;DHT22;18176;49.502;11.754;2023-01-24T08:04:07;1.70;99.90
21184;DHT22;18176;49.502;11.754;2023-01-24T08:08:08;1.80;99.90
21184;DHT22;18176;49.502;11.754;2023-01-24T08:12:11;1.80;99.90
21184;DHT22;18176;49.502;11.754;2023-01-24T08:16:11;1.80;99.90
21184;DHT22;18176;49.502;11.754;2023-01-24T08:20:11;1.70;99.90
21184;DHT22;18176;49.502;11.754;2023-01-24T08:24:12;1.90;99.90
21184;DHT22;18176;49.502;11.754;2023-01-24T08:28:15;1.90;99.90
21184;DHT22;18176;49.502;11.754;2023-01-24T08:32:15;2.00;99.90
21184;DHT22;18176;49.502;11.754;2023-01-24T08:36:15;2.00;99.90
21184;DHT22;18176;49.502;11.754;2023-01-24T08:40:16;2.00;99.90
21184;DHT22;18176;49.502;11.754;2023-01-24T08:44:20;2.00;99.90
21184;DHT22;18176;49.502;11.754;2023-01-24T08:48:20;1.90;99.90
21184;DHT22;18176;49.502;11.754;2023-01-24T08:52:20;2.00;99.90
21184;DHT22;18176;49.502;11.754;2023-01-24T08:56:20;2.10;99.90
21184;DHT22;18176;49.502;11.754;2023-01-24T09:00:23;2.10;99.90
21184;DHT22;18176;49.502;11.754;2023-01-24T09:04:23;2.10;99.90
21184;DHT22;18176;49.502;11.754;2023-01-24T09:08:24;2.00;99.90
21184;DHT22;18176;49.502;11.754;2023-01-24T09:12:24;2.00;99.90
21184;DHT22;18176;49.502;11.754;2023-01-24T09:16:27;2.00;99.90
21184;DHT22;18176;49.502;11.754;2023-01-24T09:20:27;2.00;99.90
21184;DHT22;18176;49.502;11.754;2023-01-24T09:24:28;2.10;99.90
21184;DHT22;18176;49.502;11.754;2023-01-24T09:28:30;2.10;99.90
21184;DHT22;18176;49.502;11.754;2023-01-24T09:32:33;2.20;99.90
21184;DHT22;18176;49.502;11.754;2023-01-24T09:36:34;2.30;99.90
21184;DHT22;18176;49.502;11.754;2023-01-24T09:40:42;2.20;99.90
21184;DHT22;18176;49.502;11.754;2023-01-24T09:44:47;2.10;99.90
21184;DHT22;18176;49.502;11.754;2023-01-24T09:49:12;2.20;99.90
21184;DHT22;18176;49.502;11.754;2023-01-24T09:53:19;2.20;99.90
21184;DHT22;18176;49.502;11.754;2023-01-24T09:57:26;2.30;99.90
21184;DHT22;18176;49.502;11.754;2023-01-24T10:01:31;2.40;99.90
21184;DHT22;18176;49.502;11.754;2023-01-24T10:05:38;2.40;99.90
21184;DHT22;18176;49.502;11.754;2023-01-24T10:09:49;2.40;99.90
21184;DHT22;18176;49.502;11.754;2023-01-24T10:14:26;2.40;99.90
21184;DHT22;18176;49.502;11.754;2023-01-24T10:18:52;2.50;99.90
21184;DHT22;18176;49.502;11.754;2023-01-24T10:23:10;2.40;99.90
21184;DHT22;18176;49.502;11.754;2023-01-24T10:27:19;2.50;99.90
21184;DHT22;18176;49.502;11.754;2023-01-24T10:31:27;2.40;99.90
21184;DHT22;18176;49.502;11.754;2023-01-24T10:35:36;2.50;99.90
21184;DHT22;18176;49.502;11.754;2023-01-24T10:39:46;2.50;99.90
21184;DHT22;18176;49.502;11.754;2023-01-24T10:43:52;2.50;99.90
21184;DHT22;18176;49.502;11.754;2023-01-24T10:47:57;2.50;99.90
21184;DHT22;18176;49.502;11.754;2023-01-24T10:52:09;2.60;99.90
21184;DHT22;18176;49.502;11.754;2023-01-24T10:56:18;2.60;99.90
21184;DHT22;18176;49.502;11.754;2023-01-24T11:00:27;2.50;99.90
21184;DHT22;18176;49.502;11.754;2023-01-24T11:04:31;2.40;99.90
21184;DHT22;18176;49.502;11.754;2023-01-24T11:08:33;2.40;99.90
21184;DHT22;18176;49.502;11.754;2023-01-24T11:12:47;2.50;99.90
21184;DHT22;18176;49.502;11.754;2023-01-24T11:16:53;2.60;99.90
21184;DHT22;18176;49.502;11.754;2023-01-24T11:21:05;2.70;99.90
21184;DHT22;18176;49.502;11.754;2023-01-24T11:25:13;2.80;99.90
21184;DHT22;18176;49.502;11.754;2023-01-24T11:29:17;2.80;99.90
21184;DHT22;18176;49.502;11.754;2023-01-24T11:38:16;2.70;99.90
21184;DHT22;18176;49.502;11.754;2023-01-24T11:42:33;2.60;99.90
21184;DHT22;18176;49.502;11.754;2023-01-24T11:46:46;2.60;99.90
21184;DHT22;18176;49.502;11.754;2023-01-24T11:51:00;2.50;99.90
21184;DHT22;18176;49.502;11.754;2023-01-24T11:55:14;2.50;99.90
21184;DHT22;18176;49.502;11.754;2023-01-24T11:59:45;2.40;99.90
21184;DHT22;18176;49.502;11.754;2023-01-24T12:04:25;2.50;99.90
21184;DHT22;18176;49.502;11.754;2023-01-24T12:09:02;2.50;99.90
21184;DHT22;18176;49.502;11.754;2023-01-24T12:13:21;2.50;99.90
21184;DHT22;18176;49.502;11.754;2023-01-24T12:17:43;2.60;99.90
21184;DHT22;18176;49.502;11.754;2023-01-24T12:21:57;2.50;99.90
21184;DHT22;18176;49.502;11.754;2023-01-24T12:26:03;2.60;99.90
21184;DHT22;18176;49.502;11.754;2023-01-24T12:30:15;2.50;99.90
21184;DHT22;18176;49.502;11.754;2023-01-24T12:34:35;2.60;99.90
21184;DHT22;18176;49.502;11.754;2023-01-24T12:38:45;2.60;99.90
21184;DHT22;18176;49.502;11.754;2023-01-24T12:42:54;2.70;99.90
21184;DHT22;18176;49.502;11.754;2023-01-24T12:47:15;2.70;99.90
21184;DHT22;18176;49.502;11.754;2023-01-24T12:51:27;2.70;99.90
21184;DHT22;18176;49.502;11.754;2023-01-24T12:55:37;2.80;99.90
21184;DHT22;18176;49.502;11.754;2023-01-24T12:59:44;2.80;99.90
21184;DHT22;18176;49.502;11.754;2023-01-24T13:03:54;2.80;99.90
21184;DHT22;18176;49.502;11.754;2023-01-24T13:08:15;2.80;99.90
21184;DHT22;18176;49.502;11.754;2023-01-24T13:12:26;2.70;99.90
21184;DHT22;18176;49.502;11.754;2023-01-24T13:21:17;2.70;99.90
21184;DHT22;18176;49.502;11.754;2023-01-24T13:25:35;2.70;99.90
21184;DHT22;18176;49.502;11.754;2023-01-24T13:30:02;2.70;99.90
21184;DHT22;18176;49.502;11.754;2023-01-24T13:34:15;2.60;99.90
21184;DHT22;18176;49.502;11.754;2023-01-24T13:38:22;2.50;99.90
21184;DHT22;18176;49.502;11.754;2023-01-24T13:42:32;2.50;99.90
21184;DHT22;18176;49.502;11.754;2023-01-24T13:47:08;2.50;99.90
21184;DHT22;18176;49.502;11.754;2023-01-24T13:51:34;2.30;99.90
21184;DHT22;18176;49.502;11.754;2023-01-24T13:56:02;2.40;99.90
21184;DHT22;18176;49.502;11.754;2023-01-24T14:00:16;2.30;99.90
21184;DHT22;18176;49.502;11.754;2023-01-24T14:04:39;2.30;99.90
21184;DHT22;18176;49.502;11.754;2023-01-24T14:09:13;2.30;99.90
21184;DHT22;18176;49.502;11.754;2023-01-24T14:13:43;2.30;99.90
21184;DHT22;18176;49.502;11.754;2023-01-24T14:17:57;2.30;99.90
21184;DHT22;18176;49.502;11.754;2023-01-24T14:22:14;2.30;99.90
21184;DHT22;18176;49.502;11.754;2023-01-24T14:26:21;2.20;99.90
21184;DHT22;18176;49.502;11.754;2023-01-24T14:30:31;2.20;99.90
21184;DHT22;18176;49.502;11.754;2023-01-24T14:34:39;2.30;99.90
21184;DHT22;18176;49.502;11.754;2023-01-24T14:38:47;2.30;99.90
21184;DHT22;18176;49.502;11.754;2023-01-24T14:42:48;2.30;99.90
21184;DHT22;18176;49.502;11.754;2023-01-24T14:46:55;2.20;99.90
21184;DHT22;18176;49.502;11.754;2023-01-24T14:51:03;2.20;99.90
21184;DHT22;18176;49.502;11.754;2023-01-24T14:55:30;2.10;99.90
21184;DHT22;18176;49.502;11.754;2023-01-24T14:59:32;2.10;99.90
21184;DHT22;18176;49.502;11.754;2023-01-24T15:03:34;2.10;99.90
21184;DHT22;18176;49.502;11.754;2023-01-24T15:07:34;2.00;99.90
21184;DHT22;18176;49.502;11.754;2023-01-24T15:11:37;2.10;99.90
21184;DHT22;18176;49.502;11.754;2023-01-24T15:15:39;2.00;99.90
21184;DHT22;18176;49.502;11.754;2023-01-24T15:19:40;2.00;99.90
21184;DHT22;18176;49.502;11.754;2023-01-24T15:23:40;2.00;99.90
21184;DHT22;18176;49.502;11.754;2023-01-24T15:27:43;1.90;99.90
21184;DHT22;18176;49.502;11.754;2023-01-24T15:31:48;2.00;99.90
21184;DHT22;18176;49.502;11.754;2023-01-24T15:35:50;2.00;99.90
21184;DHT22;18176;49.502;11.754;2023-01-24T15:39:56;2.00;99.90
21184;DHT22;18176;49.502;11.754;2023-01-24T15:44:04;2.10;99.90
21184;DHT22;18176;49.502;11.754;2023-01-24T15:48:12;2.10;99.90
21184;DHT22;18176;49.502;11.754;2023-01-24T15:52:19;2.00;99.90
21184;DHT22;18176;49.502;11.754;2023-01-24T15:56:21;1.90;99.90
21184;DHT22;18176;49.502;11.754;2023-01-24T16:00:25;1.90;99.90
21184;DHT22;18176;49.502;11.754;2023-01-24T16:04:26;1.80;99.90
21184;DHT22;18176;49.502;11.754;2023-01-24T16:08:26;1.70;99.90
21184;DHT22;18176;49.502;11.754;2023-01-24T16:12:33;1.70;99.90
21184;DHT22;18176;49.502;11.754;2023-01-24T16:16:37;1.70;99.90
21184;DHT22;18176;49.502;11.754;2023-01-24T16:20:38;1.70;99.90
21184;DHT22;18176;49.502;11.754;2023-01-24T16:24:38;1.60;99.90
21184;DHT22;18176;49.502;11.754;2023-01-24T16:28:38;1.60;99.90
21184;DHT22;18176;49.502;11.754;2023-01-24T16:32:41;1.60;99.90
21184;DHT22;18176;49.502;11.754;2023-01-24T16:36:42;1.50;99.90
21184;DHT22;18176;49.502;11.754;2023-01-24T16:40:42;1.50;99.90
21184;DHT22;18176;49.502;11.754;2023-01-24T16:44:44;1.50;99.90
21184;DHT22;18176;49.502;11.754;2023-01-24T16:48:56;1.50;99.90
21184;DHT22;18176;49.502;11.754;2023-01-24T16:52:56;1.60;99.90
21184;DHT22;18176;49.502;11.754;2023-01-24T16:56:57;1.50;99.90
21184;DHT22;18176;49.502;11.754;2023-01-24T17:00:57;1.50;99.90
21184;DHT22;18176;49.502;11.754;2023-01-24T17:04:59;1.60;99.90
21184;DHT22;18176;49.502;11.754;2023-01-24T17:09:00;1.60;99.90
21184;DHT22;18176;49.502;11.754;2023-01-24T17:13:02;1.50;99.90
21184;DHT22;18176;49.502;11.754;2023-01-24T17:17:03;1.50;99.90
21184;DHT22;18176;49.502;11.754;2023-01-24T17:21:07;1.50;99.90
21184;DHT22;18176;49.502;11.754;2023-01-24T17:25:09;1.50;99.90
21184;DHT22;18176;49.502;11.754;2023-01-24T17:29:10;1.60;99.90
21184;DHT22;18176;49.502;11.754;2023-01-24T17:33:10;1.50;99.90
21184;DHT22;18176;49.502;11.754;2023-01-24T17:37:13;1.50;99.90
21184;DHT22;18176;49.502;11.754;2023-01-24T17:41:19;1.50;99.90
21184;DHT22;18176;49.502;11.754;2023-01-24T17:45:21;1.40;99.90
21184;DHT22;18176;49.502;11.754;2023-01-24T17:49:21;1.40;99.90
21184;DHT22;18176;49.502;11.754;2023-01-24T17:53:24;1.40;99.90
21184;DHT22;18176;49.502;11.754;2023-01-24T17:57:25;1.40;99.90
21184;DHT22;18176;49.502;11.754;2023-01-24T18:01:25;1.40;99.90
21184;DHT22;18176;49.502;11.754;2023-01-24T18:05:26;1.50;99.90
21184;DHT22;18176;49.502;11.754;2023-01-24T18:09:28;1.40;99.90
21184;DHT22;18176;49.502;11.754;2023-01-24T18:13:28;1.40;99.90
21184;DHT22;18176;49.502;11.754;2023-01-24T18:17:29;1.30;99.90
21184;DHT22;18176;49.502;11.754;2023-01-24T18:21:29;1.30;99.90
21184;DHT22;18176;49.502;11.754;2023-01-24T18:25:33;1.30;99.90
21184;DHT22;18176;49.502;11.754;2023-01-24T18:29:34;1.20;99.90
21184;DHT22;18176;49.502;11.754;2023-01-24T18:33:35;1.20;99.90
21184;DHT22;18176;49.502;11.754;2023-01-24T18:37:36;1.30;99.90
21184;DHT22;18176;49.502;11.754;2023-01-24T18:41:40;1.30;99.90
21184;DHT22;18176;49.502;11.754;2023-01-24T18:45:40;1.40;99.90
21184;DHT22;18176;49.502;11.754;2023-01-24T18:49:40;1.30;99.90
21184;DHT22;18176;49.502;11.754;2023-01-24T18:53:41;1.40;99.90
21184;DHT22;18176;49.502;11.754;2023-01-24T18:57:45;1.40;99.90
21184;DHT22;18176;49.502;11.754;2023-01-24T19:01:45;1.30;99.90
21184;DHT22;18176;49.502;11.754;2023-01-24T19:05:46;1.30;99.90
21184;DHT22;18176;49.502;11.754;2023-01-24T19:09:46;1.20;99.90
21184;DHT22;18176;49.502;11.754;2023-01-24T19:13:49;1.20;99.90
21184;DHT22;18176;49.502;11.754;2023-01-24T19:17:52;1.10;99.90
21184;DHT22;18176;49.502;11.754;2023-01-24T19:21:53;1.10;99.90
21184;DHT22;18176;49.502;11.754;2023-01-24T19:25:58;1.10;99.90
21184;DHT22;18176;49.502;11.754;2023-01-24T19:30:01;1.10;99.90
21184;DHT22;18176;49.502;11.754;2023-01-24T19:34:02;1.10;99.90
21184;DHT22;18176;49.502;11.754;2023-01-24T19:38:03;1.10;99.90
21184;DHT22;18176;49.502;11.754;2023-01-24T19:42:03;1.10;99.90
21184;DHT22;18176;49.502;11.754;2023-01-24T19:46:06;1.10;99.90
21184;DHT22;18176;49.502;11.754;2023-01-24T19:50:09;1.20;99.90
21184;DHT22;18176;49.502;11.754;2023-01-24T19:54:10;1.10;99.90
21184;DHT22;18176;49.502;11.754;2023-01-24T19:58:11;1.10;99.90
21184;DHT22;18176;49.502;11.754;2023-01-24T20:02:13;1.10;99.90
21184;DHT22;18176;49.502;11.754;2023-01-24T20:06:16;0.90;99.90
21184;DHT22;18176;49.502;11.754;2023-01-24T20:10:18;0.90;99.90
21184;DHT22;18176;49.502;11.754;2023-01-24T20:14:19;0.90;99.90
21184;DHT22;18176;49.502;11.754;2023-01-24T20:18:22;0.90;99.90
21184;DHT22;18176;49.502;11.754;2023-01-24T20:22:24;0.90;99.90
21184;DHT22;18176;49.502;11.754;2023-01-24T20:26:25;0.80;99.90
21184;DHT22;18176;49.502;11.754;2023-01-24T20:30:27;0.80;99.90
21184;DHT22;18176;49.502;11.754;2023-01-24T20:34:30;0.80;99.90
21184;DHT22;18176;49.502;11.754;2023-01-24T20:38:30;0.80;99.90
21184;DHT22;18176;49.502;11.754;2023-01-24T20:42:34;0.80;99.90
21184;DHT22;18176;49.502;11.754;2023-01-24T20:46:37;0.90;99.90
21184;DHT22;18176;49.502;11.754;2023-01-24T20:50:40;0.90;99.90
21184;DHT22;18176;49.502;11.754;2023-01-24T20:54:40;0.90;99.90
21184;DHT22;18176;49.502;11.754;2023-01-24T20:58:40;0.90;99.90
21184;DHT22;18176;49.502;11.754;2023-01-24T21:02:40;0.90;99.90
21184;DHT22;18176;49.502;11.754;2023-01-24T21:06:43;0.90;99.90
21184;DHT22;18176;49.502;11.754;2023-01-24T21:10:44;0.90;99.90
21184;DHT22;18176;49.502;11.754;2023-01-24T21:14:45;0.80;99.90
21184;DHT22;18176;49.502;11.754;2023-01-24T21:18:49;0.80;99.90
21184;DHT22;18176;49.502;11.754;2023-01-24T21:22:53;0.80;99.90
21184;DHT22;18176;49.502;11.754;2023-01-24T21:26:53;0.80;99.90
21184;DHT22;18176;49.502;11.754;2023-01-24T21:31:00;0.70;99.90
21184;DHT22;18176;49.502;11.754;2023-01-24T21:35:02;0.80;99.90
21184;DHT22;18176;49.502;11.754;2023-01-24T21:39:06;0.80;99.90
21184;DHT22;18176;49.502;11.754;2023-01-24T21:43:06;0.70;99.90
21184;DHT22;18176;49.502;11.754;2023-01-24T21:47:08;0.70;99.90
21184;DHT22;18176;49.502;11.754;2023-01-24T21:51:08;0.70;99.90
21184;DHT22;18176;49.502;11.754;2023-01-24T21:55:10;0.60;99.90
21184;DHT22;18176;49.502;11.754;2023-01-24T21:59:10;0.60;99.90
21184;DHT22;18176;49.502;11.754;2023-01-24T22:03:08;0.60;99.90
21184;DHT22;18176;49.502;11.754;2023-01-24T22:07:22;0.60;99.90
21184;DHT22;18176;49.502;11.754;2023-01-24T22:11:26;0.50;99.90
21184;DHT22;18176;49.502;11.754;2023-01-24T22:15:27;0.50;99.90
21184;DHT22;18176;49.502;11.754;2023-01-24T22:19:37;0.50;99.90
21184;DHT22;18176;49.502;11.754;2023-01-24T22:23:45;0.50;99.90
21184;DHT22;18176;49.502;11.754;2023-01-24T22:27:52;0.50;99.90
21184;DHT22;18176;49.502;11.754;2023-01-24T22:31:54;0.40;99.90
21184;DHT22;18176;49.502;11.754;2023-01-24T22:35:56;0.40;99.90
21184;DHT22;18176;49.502;11.754;2023-01-24T22:39:58;0.40;99.90
21184;DHT22;18176;49.502;11.754;2023-01-24T22:44:01;0.40;99.90
21184;DHT22;18176;49.502;11.754;2023-01-24T22:48:10;0.50;99.90
21184;DHT22;18176;49.502;11.754;2023-01-24T22:52:11;0.50;99.90
21184;DHT22;18176;49.502;11.754;2023-01-24T22:56:12;0.60;99.90
21184;DHT22;18176;49.502;11.754;2023-01-24T23:00:16;0.60;99.90
21184;DHT22;18176;49.502;11.754;2023-01-24T23:04:17;0.60;99.90
21184;DHT22;18176;49.502;11.754;2023-01-24T23:08:17;0.50;99.90
21184;DHT22;18176;49.502;11.754;2023-01-24T23:12:18;0.50;99.90
21184;DHT22;18176;49.502;11.754;2023-01-24T23:16:39;0.50;99.90
21184;DHT22;18176;49.502;11.754;2023-01-24T23:20:49;0.50;99.90
21184;DHT22;18176;49.502;11.754;2023-01-24T23:25:03;0.40;99.90
21184;DHT22;18176;49.502;11.754;2023-01-24T23:29:27;0.40;99.90
21184;DHT22;18176;49.502;11.754;2023-01-24T23:33:42;0.30;99.90
21184;DHT22;18176;49.502;11.754;2023-01-24T23:37:44;0.30;99.90
21184;DHT22;18176;49.502;11.754;2023-01-24T23:41:48;0.20;99.90
21184;DHT22;18176;49.502;11.754;2023-01-24T23:45:48;0.30;99.90
21184;DHT22;18176;49.502;11.754;2023-01-24T23:49:51;0.30;99.90
21184;DHT22;18176;49.502;11.754;2023-01-24T23:53:52;0.20;99.90
21184;DHT22;18176;49.502;11.754;2023-01-24T23:57:52;0.20;99.90
